sensor_id;sensor_type;location;lat;lon;timestamp;pressure;altitude;pressure_sealevel;temperature;humidity
56198;BME280;42700;42.524;12.052;2023-04-29T00:00:03;89781.59;;;12.05;100.00
56198;BME280;42700;42.524;12.052;2023-04-29T00:02:32;89901.56;;;12.07;100.00
56198;BME280;42700;42.524;12.052;2023-04-29T00:04:58;90000.97;;;12.09;100.00
56198;BME280;42700;42.524;12.052;2023-04-29T00:07:23;90020.72;;;12.08;100.00
56198;BME280;42700;42.524;12.052;2023-04-29T00:09:49;90026.00;;;12.05;100.00
56198;BME280;42700;42.524;12.052;2023-04-29T00:12:15;90073.44;;;12.03;100.00
56198;BME280;42700;42.524;12.052;2023-04-29T00:14:41;90281.09;;;12.08;100.00
56198;BME280;42700;42.524;12.052;2023-04-29T00:17:07;90382.06;;;12.12;100.00
56198;BME280;42700;42.524;12.052;2023-04-29T00:19:33;90604.25;;;12.20;100.00
56198;BME280;42700;42.524;12.052;2023-04-29T00:21:58;90786.19;;;12.26;100.00
56198;BME280;42700;42.524;12.052;2023-04-29T00:24:24;90970.84;;;12.32;100.00
56198;BME280;42700;42.524;12.052;2023-04-29T00:26:49;91093.97;;;12.36;100.00
56198;BME280;42700;42.524;12.052;2023-04-29T00:29:15;91171.50;;;12.39;100.00
56198;BME280;42700;42.524;12.052;2023-04-29T00:31:41;91284.72;;;12.40;100.00
56198;BME280;42700;42.524;12.052;2023-04-29T00:34:07;91466.38;;;12.44;100.00
56198;BME280;42700;42.524;12.052;2023-04-29T00:36:32;91709.69;;;12.50;100.00
56198;BME280;42700;42.524;12.052;2023-04-29T00:38:58;91903.63;;;12.55;100.00
56198;BME280;42700;42.524;12.052;2023-04-29T00:41:24;92024.41;;;12.54;100.00
56198;BME280;42700;42.524;12.052;2023-04-29T00:43:50;92058.53;;;12.52;100.00
56198;BME280;42700;42.524;12.052;2023-04-29T00:46:15;91983.81;;;12.45;100.00
56198;BME280;42700;42.524;12.052;2023-04-29T00:48:41;91996.84;;;12.37;100.00
56198;BME280;42700;42.524;12.052;2023-04-29T00:51:07;92079.94;;;12.34;100.00
56198;BME280;42700;42.524;12.052;2023-04-29T00:53:32;92174.13;;;12.33;100.00
56198;BME280;42700;42.524;12.052;2023-04-29T00:55:59;92275.94;;;12.34;100.00
56198;BME280;42700;42.524;12.052;2023-04-29T00:58:26;92302.38;;;12.30;100.00
56198;BME280;42700;42.524;12.052;2023-04-29T01:00:58;92392.34;;;12.28;100.00
56198;BME280;42700;42.524;12.052;2023-04-29T01:03:24;92449.56;;;12.26;100.00
56198;BME280;42700;42.524;12.052;2023-04-29T01:05:51;92472.28;;;12.23;100.00
56198;BME280;42700;42.524;12.052;2023-04-29T01:11:23;92851.25;;;12.29;100.00
56198;BME280;42700;42.524;12.052;2023-04-29T01:14:09;93053.25;;;12.34;100.00
56198;BME280;42700;42.524;12.052;2023-04-29T01:19:01;93366.97;;;12.45;100.00
56198;BME280;42700;42.524;12.052;2023-04-29T01:21:30;93490.91;;;12.46;100.00
56198;BME280;42700;42.524;12.052;2023-04-29T01:23:56;93522.06;;;12.45;100.00
56198;BME280;42700;42.524;12.052;2023-04-29T01:26:22;93491.00;;;12.41;100.00
56198;BME280;42700;42.524;12.052;2023-04-29T01:28:53;93566.56;;;12.40;100.00
56198;BME280;42700;42.524;12.052;2023-04-29T01:31:27;93622.44;;;12.40;100.00
56198;BME280;42700;42.524;12.052;2023-04-29T01:36:40;93739.50;;;12.40;100.00
56198;BME280;42700;42.524;12.052;2023-04-29T01:39:26;93928.34;;;12.45;100.00
56198;BME280;42700;42.524;12.052;2023-04-29T01:41:57;94153.38;;;12.51;100.00
56198;BME280;42700;42.524;12.052;2023-04-29T01:44:27;94304.25;;;12.55;100.00
56198;BME280;42700;42.524;12.052;2023-04-29T01:46:54;94447.19;;;12.60;100.00
56198;BME280;42700;42.524;12.052;2023-04-29T01:49:23;94704.59;;;12.70;100.00
56198;BME280;42700;42.524;12.052;2023-04-29T01:51:49;94914.44;;;12.78;100.00
56198;BME280;42700;42.524;12.052;2023-04-29T01:54:14;95060.16;;;12.83;100.00
56198;BME280;42700;42.524;12.052;2023-04-29T01:56:40;95160.81;;;12.86;100.00
56198;BME280;42700;42.524;12.052;2023-04-29T01:59:05;95237.56;;;12.89;100.00
56198;BME280;42700;42.524;12.052;2023-04-29T02:01:32;95282.34;;;12.92;100.00
56198;BME280;42700;42.524;12.052;2023-04-29T02:03:58;95061.19;;;12.82;100.00
56198;BME280;42700;42.524;12.052;2023-04-29T02:06:24;94854.50;;;12.70;100.00
56198;BME280;42700;42.524;12.052;2023-04-29T02:08:49;94735.19;;;12.62;100.00
56198;BME280;42700;42.524;12.052;2023-04-29T02:11:15;94687.78;;;12.59;100.00
56198;BME280;42700;42.524;12.052;2023-04-29T02:13:40;94634.28;;;12.55;100.00
56198;BME280;42700;42.524;12.052;2023-04-29T02:16:09;94569.63;;;12.50;100.00
56198;BME280;42700;42.524;12.052;2023-04-29T02:18:35;94580.53;;;12.48;100.00
56198;BME280;42700;42.524;12.052;2023-04-29T02:21:01;94486.56;;;12.43;100.00
56198;BME280;42700;42.524;12.052;2023-04-29T02:23:26;94378.00;;;12.34;100.00
56198;BME280;42700;42.524;12.052;2023-04-29T02:25:52;94392.94;;;12.30;100.00
56198;BME280;42700;42.524;12.052;2023-04-29T02:28:18;94425.38;;;12.27;100.00
56198;BME280;42700;42.524;12.052;2023-04-29T02:30:43;94450.38;;;12.26;100.00
56198;BME280;42700;42.524;12.052;2023-04-29T02:33:09;94438.69;;;12.22;100.00
56198;BME280;42700;42.524;12.052;2023-04-29T02:35:34;94523.81;;;12.22;100.00
56198;BME280;42700;42.524;12.052;2023-04-29T02:38:00;94386.56;;;12.16;100.00
56198;BME280;42700;42.524;12.052;2023-04-29T02:40:25;94341.34;;;12.11;100.00
56198;BME280;42700;42.524;12.052;2023-04-29T02:42:51;94340.28;;;12.07;100.00
56198;BME280;42700;42.524;12.052;2023-04-29T02:45:17;94348.81;;;12.04;100.00
56198;BME280;42700;42.524;12.052;2023-04-29T02:47:42;94348.28;;;12.02;100.00
56198;BME280;42700;42.524;12.052;2023-04-29T02:50:08;94375.41;;;11.98;100.00
56198;BME280;42700;42.524;12.052;2023-04-29T02:52:34;94476.72;;;12.02;100.00
56198;BME280;42700;42.524;12.052;2023-04-29T02:55:00;94442.41;;;12.00;100.00
56198;BME280;42700;42.524;12.052;2023-04-29T02:57:25;94352.78;;;11.96;100.00
56198;BME280;42700;42.524;12.052;2023-04-29T02:59:51;94345.59;;;11.91;100.00
56198;BME280;42700;42.524;12.052;2023-04-29T03:02:16;94420.03;;;11.91;100.00
56198;BME280;42700;42.524;12.052;2023-04-29T03:04:42;94521.66;;;11.93;100.00
56198;BME280;42700;42.524;12.052;2023-04-29T03:07:08;94597.69;;;11.94;100.00
56198;BME280;42700;42.524;12.052;2023-04-29T03:09:33;94770.28;;;12.01;100.00
56198;BME280;42700;42.524;12.052;2023-04-29T03:12:01;94782.00;;;12.00;100.00
56198;BME280;42700;42.524;12.052;2023-04-29T03:14:27;94832.28;;;12.02;100.00
56198;BME280;42700;42.524;12.052;2023-04-29T03:16:52;94900.59;;;12.01;100.00
56198;BME280;42700;42.524;12.052;2023-04-29T03:19:20;94999.25;;;11.99;100.00
56198;BME280;42700;42.524;12.052;2023-04-29T03:21:46;95189.22;;;12.04;100.00
56198;BME280;42700;42.524;12.052;2023-04-29T03:24:11;95466.72;;;12.09;100.00
56198;BME280;42700;42.524;12.052;2023-04-29T03:26:37;95489.88;;;12.09;100.00
56198;BME280;42700;42.524;12.052;2023-04-29T03:29:02;95569.91;;;12.07;100.00
56198;BME280;42700;42.524;12.052;2023-04-29T03:31:28;95496.94;;;12.03;100.00
56198;BME280;42700;42.524;12.052;2023-04-29T03:33:53;95455.91;;;11.99;100.00
56198;BME280;42700;42.524;12.052;2023-04-29T03:36:19;95348.06;;;11.91;100.00
56198;BME280;42700;42.524;12.052;2023-04-29T03:38:45;95341.59;;;11.87;100.00
56198;BME280;42700;42.524;12.052;2023-04-29T03:41:10;95280.38;;;11.82;100.00
56198;BME280;42700;42.524;12.052;2023-04-29T03:43:36;95300.50;;;11.78;100.00
56198;BME280;42700;42.524;12.052;2023-04-29T03:46:02;95454.47;;;11.79;100.00
56198;BME280;42700;42.524;12.052;2023-04-29T03:48:27;95353.84;;;11.71;100.00
56198;BME280;42700;42.524;12.052;2023-04-29T03:50:53;95431.19;;;11.70;100.00
56198;BME280;42700;42.524;12.052;2023-04-29T03:53:18;95452.44;;;11.70;100.00
56198;BME280;42700;42.524;12.052;2023-04-29T03:55:45;95436.97;;;11.67;100.00
56198;BME280;42700;42.524;12.052;2023-04-29T03:58:10;95483.22;;;11.66;100.00
56198;BME280;42700;42.524;12.052;2023-04-29T04:00:36;95456.63;;;11.66;100.00
56198;BME280;42700;42.524;12.052;2023-04-29T04:03:01;95416.19;;;11.63;100.00
56198;BME280;42700;42.524;12.052;2023-04-29T04:05:27;95427.06;;;11.62;100.00
56198;BME280;42700;42.524;12.052;2023-04-29T04:07:53;95362.91;;;11.58;100.00
56198;BME280;42700;42.524;12.052;2023-04-29T04:10:19;95234.16;;;11.49;100.00
56198;BME280;42700;42.524;12.052;2023-04-29T04:12:45;95279.25;;;11.44;100.00
56198;BME280;42700;42.524;12.052;2023-04-29T04:15:11;95576.75;;;11.51;100.00
56198;BME280;42700;42.524;12.052;2023-04-29T04:17:37;95722.72;;;11.52;100.00
56198;BME280;42700;42.524;12.052;2023-04-29T04:20:02;95868.47;;;11.55;100.00
56198;BME280;42700;42.524;12.052;2023-04-29T04:22:28;96141.75;;;11.65;100.00
56198;BME280;42700;42.524;12.052;2023-04-29T04:24:54;96280.97;;;11.71;100.00
56198;BME280;42700;42.524;12.052;2023-04-29T04:27:20;96216.13;;;11.72;100.00
56198;BME280;42700;42.524;12.052;2023-04-29T04:29:45;96153.94;;;11.73;100.00
56198;BME280;42700;42.524;12.052;2023-04-29T04:32:11;96032.88;;;11.70;100.00
56198;BME280;42700;42.524;12.052;2023-04-29T04:34:36;96040.63;;;11.72;100.00
56198;BME280;42700;42.524;12.052;2023-04-29T04:37:03;96210.53;;;11.80;100.00
56198;BME280;42700;42.524;12.052;2023-04-29T04:39:29;96275.31;;;11.86;100.00
56198;BME280;42700;42.524;12.052;2023-04-29T04:41:54;96366.94;;;11.90;100.00
56198;BME280;42700;42.524;12.052;2023-04-29T04:44:20;96450.84;;;11.92;100.00
56198;BME280;42700;42.524;12.052;2023-04-29T04:46:46;96593.66;;;11.98;100.00
56198;BME280;42700;42.524;12.052;2023-04-29T04:49:12;96645.22;;;12.04;100.00
56198;BME280;42700;42.524;12.052;2023-04-29T04:51:37;96586.66;;;12.04;100.00
56198;BME280;42700;42.524;12.052;2023-04-29T04:54:02;96544.53;;;12.01;100.00
56198;BME280;42700;42.524;12.052;2023-04-29T04:56:28;96878.56;;;12.10;100.00
56198;BME280;42700;42.524;12.052;2023-04-29T04:58:54;97249.97;;;12.26;100.00
56198;BME280;42700;42.524;12.052;2023-04-29T05:01:19;97573.25;;;12.39;100.00
56198;BME280;42700;42.524;12.052;2023-04-29T05:03:45;97719.22;;;12.50;100.00
56198;BME280;42700;42.524;12.052;2023-04-29T05:06:10;97851.63;;;12.56;100.00
56198;BME280;42700;42.524;12.052;2023-04-29T05:08:36;98191.38;;;12.67;100.00
56198;BME280;42700;42.524;12.052;2023-04-29T05:11:02;98489.94;;;12.82;100.00
56198;BME280;42700;42.524;12.052;2023-04-29T05:13:27;98510.25;;;12.91;100.00
56198;BME280;42700;42.524;12.052;2023-04-29T05:15:53;98608.88;;;12.99;100.00
56198;BME280;42700;42.524;12.052;2023-04-29T05:18:18;99080.22;;;13.22;100.00
56198;BME280;42700;42.524;12.052;2023-04-29T05:20:44;99239.75;;;13.36;100.00
56198;BME280;42700;42.524;12.052;2023-04-29T05:23:09;99509.78;;;13.58;100.00
56198;BME280;42700;42.524;12.052;2023-04-29T05:25:35;99516.69;;;13.69;100.00
56198;BME280;42700;42.524;12.052;2023-04-29T05:28:01;99653.19;;;13.83;100.00
56198;BME280;42700;42.524;12.052;2023-04-29T05:30:27;100092.59;;;14.07;100.00
56198;BME280;42700;42.524;12.052;2023-04-29T05:32:52;100148.25;;;14.21;100.00
56198;BME280;42700;42.524;12.052;2023-04-29T05:35:18;100813.63;;;14.55;100.00
56198;BME280;42700;42.524;12.052;2023-04-29T05:37:43;101058.72;;;14.79;100.00
56198;BME280;42700;42.524;12.052;2023-04-29T05:40:09;101204.44;;;14.98;100.00
56198;BME280;42700;42.524;12.052;2023-04-29T05:42:35;101434.91;;;15.17;100.00
56198;BME280;42700;42.524;12.052;2023-04-29T05:45:00;101633.41;;;15.37;100.00
56198;BME280;42700;42.524;12.052;2023-04-29T05:47:26;102098.66;;;15.62;100.00
56198;BME280;42700;42.524;12.052;2023-04-29T05:49:51;102270.06;;;15.78;100.00
56198;BME280;42700;42.524;12.052;2023-04-29T05:52:17;102599.56;;;15.95;100.00
56198;BME280;42700;42.524;12.052;2023-04-29T05:54:42;103284.50;;;16.26;100.00
56198;BME280;42700;42.524;12.052;2023-04-29T05:57:08;103670.81;;;16.47;100.00
56198;BME280;42700;42.524;12.052;2023-04-29T05:59:34;104468.69;;;16.82;100.00
56198;BME280;42700;42.524;12.052;2023-04-29T06:02:00;104967.69;;;17.06;100.00
56198;BME280;42700;42.524;12.052;2023-04-29T06:04:25;105556.66;;;17.33;100.00
56198;BME280;42700;42.524;12.052;2023-04-29T06:06:54;106321.91;;;17.68;100.00
56198;BME280;42700;42.524;12.052;2023-04-29T06:09:21;106954.34;;;18.00;100.00
56198;BME280;42700;42.524;12.052;2023-04-29T06:11:50;107283.84;;;18.19;100.00
56198;BME280;42700;42.524;12.052;2023-04-29T06:14:15;108197.78;;;18.58;100.00
56198;BME280;42700;42.524;12.052;2023-04-29T06:16:41;108567.66;;;18.81;100.00
56198;BME280;42700;42.524;12.052;2023-04-29T06:19:06;108645.22;;;18.91;100.00
56198;BME280;42700;42.524;12.052;2023-04-29T06:21:32;108911.72;;;19.05;100.00
56198;BME280;42700;42.524;12.052;2023-04-29T06:23:57;109673.91;;;19.35;100.00
56198;BME280;42700;42.524;12.052;2023-04-29T06:26:23;110521.81;;;19.71;100.00
56198;BME280;42700;42.524;12.052;2023-04-29T06:28:49;110509.63;;;19.80;100.00
56198;BME280;42700;42.524;12.052;2023-04-29T06:31:15;110495.53;;;19.87;100.00
56198;BME280;42700;42.524;12.052;2023-04-29T06:33:40;111013.00;;;20.08;100.00
56198;BME280;42700;42.524;12.052;2023-04-29T06:36:06;111196.72;;;20.22;100.00
56198;BME280;42700;42.524;12.052;2023-04-29T06:38:31;110747.38;;;20.14;100.00
56198;BME280;42700;42.524;12.052;2023-04-29T06:40:57;110211.53;;;20.03;100.00
56198;BME280;42700;42.524;12.052;2023-04-29T06:43:28;109752.47;;;19.91;100.00
56198;BME280;42700;42.524;12.052;2023-04-29T06:45:53;109692.09;;;19.91;100.00
56198;BME280;42700;42.524;12.052;2023-04-29T06:48:19;110145.78;;;20.04;100.00
56198;BME280;42700;42.524;12.052;2023-04-29T06:50:48;110356.22;;;20.15;100.00
56198;BME280;42700;42.524;12.052;2023-04-29T06:53:14;110842.00;;;20.32;100.00
56198;BME280;42700;42.524;12.052;2023-04-29T06:55:39;111922.94;;;20.67;100.00
56198;BME280;42700;42.524;12.052;2023-04-29T06:58:05;112058.09;;;20.77;100.00
56198;BME280;42700;42.524;12.052;2023-04-29T07:00:31;112724.50;;;21.04;100.00
56198;BME280;42700;42.524;12.052;2023-04-29T07:02:56;111879.75;;;20.83;100.00
56198;BME280;42700;42.524;12.052;2023-04-29T07:05:22;112090.78;;;20.94;100.00
56198;BME280;42700;42.524;12.052;2023-04-29T07:07:48;112272.88;;;21.03;100.00
56198;BME280;42700;42.524;12.052;2023-04-29T07:10:14;112545.53;;;21.14;100.00
56198;BME280;42700;42.524;12.052;2023-04-29T07:12:39;112418.41;;;21.17;100.00
56198;BME280;42700;42.524;12.052;2023-04-29T07:15:05;112375.97;;;21.18;100.00
56198;BME280;42700;42.524;12.052;2023-04-29T07:17:30;113102.47;;;21.43;97.83
56198;BME280;42700;42.524;12.052;2023-04-29T07:19:56;112890.78;;;21.40;97.31
56198;BME280;42700;42.524;12.052;2023-04-29T07:22:22;113266.22;;;21.55;97.55
56198;BME280;42700;42.524;12.052;2023-04-29T07:24:47;113576.44;;;21.68;96.36
56198;BME280;42700;42.524;12.052;2023-04-29T07:27:13;114035.53;;;21.84;95.13
56198;BME280;42700;42.524;12.052;2023-04-29T07:29:38;114509.59;;;22.03;93.79
56198;BME280;42700;42.524;12.052;2023-04-29T07:32:04;114399.69;;;22.08;92.50
56198;BME280;42700;42.524;12.052;2023-04-29T07:34:30;114326.97;;;22.14;91.30
56198;BME280;42700;42.524;12.052;2023-04-29T07:36:55;114449.53;;;22.27;89.91
56198;BME280;42700;42.524;12.052;2023-04-29T07:39:21;114219.34;;;22.34;89.24
56198;BME280;42700;42.524;12.052;2023-04-29T07:41:47;113773.28;;;22.36;89.08
56198;BME280;42700;42.524;12.052;2023-04-29T07:44:12;112303.50;;;22.09;88.28
56198;BME280;42700;42.524;12.052;2023-04-29T07:46:37;112355.88;;;22.21;87.72
56198;BME280;42700;42.524;12.052;2023-04-29T07:49:03;112085.41;;;22.22;85.58
56198;BME280;42700;42.524;12.052;2023-04-29T07:51:31;111544.31;;;22.18;81.15
56198;BME280;42700;42.524;12.052;2023-04-29T07:53:57;112244.03;;;22.55;84.76
56198;BME280;42700;42.524;12.052;2023-04-29T07:56:22;111692.84;;;22.55;84.38
56198;BME280;42700;42.524;12.052;2023-04-29T07:58:48;111413.50;;;22.61;84.94
56198;BME280;42700;42.524;12.052;2023-04-29T08:01:13;112272.63;;;22.93;85.47
56198;BME280;42700;42.524;12.052;2023-04-29T08:03:39;112814.84;;;23.15;84.69
56198;BME280;42700;42.524;12.052;2023-04-29T08:06:05;111983.34;;;23.03;84.14
56198;BME280;42700;42.524;12.052;2023-04-29T08:08:31;112068.25;;;23.14;84.23
56198;BME280;42700;42.524;12.052;2023-04-29T08:10:57;111693.06;;;23.11;83.74
56198;BME280;42700;42.524;12.052;2023-04-29T08:13:22;111177.22;;;23.00;82.56
56198;BME280;42700;42.524;12.052;2023-04-29T08:15:48;110730.41;;;22.89;77.49
56198;BME280;42700;42.524;12.052;2023-04-29T08:18:13;110580.47;;;22.99;80.99
56198;BME280;42700;42.524;12.052;2023-04-29T08:20:39;109611.50;;;22.83;81.80
56198;BME280;42700;42.524;12.052;2023-04-29T08:23:04;109444.97;;;22.81;81.44
56198;BME280;42700;42.524;12.052;2023-04-29T08:25:30;108991.53;;;22.72;81.24
56198;BME280;42700;42.524;12.052;2023-04-29T08:27:55;108313.13;;;22.56;81.87
56198;BME280;42700;42.524;12.052;2023-04-29T08:30:21;107525.75;;;22.39;81.99
56198;BME280;42700;42.524;12.052;2023-04-29T08:32:47;107896.28;;;22.49;82.67
56198;BME280;42700;42.524;12.052;2023-04-29T08:35:12;108473.22;;;22.62;82.91
56198;BME280;42700;42.524;12.052;2023-04-29T08:37:38;108665.84;;;22.65;82.80
56198;BME280;42700;42.524;12.052;2023-04-29T08:40:03;108131.38;;;22.50;82.12
56198;BME280;42700;42.524;12.052;2023-04-29T08:42:33;107746.28;;;22.41;82.01
56198;BME280;42700;42.524;12.052;2023-04-29T08:44:59;107684.84;;;22.38;82.22
56198;BME280;42700;42.524;12.052;2023-04-29T08:47:26;107171.63;;;22.25;83.23
56198;BME280;42700;42.524;12.052;2023-04-29T08:49:54;106654.28;;;22.10;82.65
56198;BME280;42700;42.524;12.052;2023-04-29T08:52:20;106203.84;;;22.02;84.00
56198;BME280;42700;42.524;12.052;2023-04-29T08:54:46;105424.50;;;21.82;84.62
56198;BME280;42700;42.524;12.052;2023-04-29T08:57:11;104732.44;;;21.62;85.13
56198;BME280;42700;42.524;12.052;2023-04-29T08:59:37;104171.53;;;21.42;85.19
56198;BME280;42700;42.524;12.052;2023-04-29T09:02:04;103911.84;;;21.28;85.52
56198;BME280;42700;42.524;12.052;2023-04-29T09:06:56;103896.50;;;21.14;86.57
56198;BME280;42700;42.524;12.052;2023-04-29T09:09:23;104022.91;;;21.10;86.78
56198;BME280;42700;42.524;12.052;2023-04-29T09:11:49;104061.09;;;21.04;86.94
56198;BME280;42700;42.524;12.052;2023-04-29T09:14:14;104426.03;;;21.06;88.00
56198;BME280;42700;42.524;12.052;2023-04-29T09:16:40;105192.59;;;21.17;88.63
56198;BME280;42700;42.524;12.052;2023-04-29T09:19:06;106258.00;;;21.36;89.35
56198;BME280;42700;42.524;12.052;2023-04-29T09:21:31;107761.16;;;21.66;89.41
56198;BME280;42700;42.524;12.052;2023-04-29T09:23:58;108770.91;;;21.84;89.92
56198;BME280;42700;42.524;12.052;2023-04-29T09:26:24;109892.78;;;22.06;90.13
56198;BME280;42700;42.524;12.052;2023-04-29T09:29:06;111090.91;;;22.32;90.42
56198;BME280;42700;42.524;12.052;2023-04-29T09:31:32;111703.97;;;22.43;90.32
56198;BME280;42700;42.524;12.052;2023-04-29T09:33:57;111278.16;;;22.32;90.44
56198;BME280;42700;42.524;12.052;2023-04-29T09:36:36;110946.66;;;22.22;91.23
56198;BME280;42700;42.524;12.052;2023-04-29T09:39:02;110489.53;;;22.09;91.95
56198;BME280;42700;42.524;12.052;2023-04-29T09:41:30;110579.94;;;22.10;92.95
56198;BME280;42700;42.524;12.052;2023-04-29T09:44:01;111091.19;;;22.18;93.95
56198;BME280;42700;42.524;12.052;2023-04-29T09:46:28;111955.91;;;22.34;95.72
56198;BME280;42700;42.524;12.052;2023-04-29T09:48:54;113099.50;;;22.55;96.18
56198;BME280;42700;42.524;12.052;2023-04-29T09:51:19;113905.66;;;22.70;96.21
56198;BME280;42700;42.524;12.052;2023-04-29T09:53:45;114620.75;;;22.83;96.90
56198;BME280;42700;42.524;12.052;2023-04-29T09:56:10;114938.28;;;22.87;96.85
56198;BME280;42700;42.524;12.052;2023-04-29T09:58:36;115765.00;;;23.04;98.56
56198;BME280;42700;42.524;12.052;2023-04-29T10:01:02;116004.78;;;23.08;98.96
56198;BME280;42700;42.524;12.052;2023-04-29T10:03:32;117252.63;;;23.34;99.36
56198;BME280;42700;42.524;12.052;2023-04-29T10:05:59;116990.06;;;23.25;100.00
56198;BME280;42700;42.524;12.052;2023-04-29T10:08:25;117750.91;;;23.42;100.00
56198;BME280;42700;42.524;12.052;2023-04-29T10:10:51;118003.84;;;23.46;100.00
56198;BME280;42700;42.524;12.052;2023-04-29T10:13:24;117823.22;;;23.39;100.00
56198;BME280;42700;42.524;12.052;2023-04-29T10:18:35;116717.50;;;23.08;100.00
56198;BME280;42700;42.524;12.052;2023-04-29T10:21:05;116434.94;;;22.96;100.00
56198;BME280;42700;42.524;12.052;2023-04-29T10:23:31;116116.00;;;22.83;100.00
56198;BME280;42700;42.524;12.052;2023-04-29T10:25:58;115279.41;;;22.57;100.00
56198;BME280;42700;42.524;12.052;2023-04-29T10:28:25;115072.53;;;22.45;100.00
56198;BME280;42700;42.524;12.052;2023-04-29T10:30:52;114861.25;;;22.34;100.00
56198;BME280;42700;42.524;12.052;2023-04-29T10:33:18;115251.81;;;22.37;100.00
56198;BME280;42700;42.524;12.052;2023-04-29T10:35:45;115835.28;;;22.46;100.00
56198;BME280;42700;42.524;12.052;2023-04-29T10:38:58;116636.28;;;22.62;100.00
56198;BME280;42700;42.524;12.052;2023-04-29T10:40:58;117604.63;;;22.83;100.00
56198;BME280;42700;42.524;12.052;2023-04-29T10:43:26;118322.00;;;23.01;100.00
56198;BME280;42700;42.524;12.052;2023-04-29T10:48:36;120061.00;;;23.45;100.00
56198;BME280;42700;42.524;12.052;2023-04-29T10:51:01;119534.91;;;23.37;100.00
56198;BME280;42700;42.524;12.052;2023-04-29T10:53:27;119126.81;;;23.29;100.00
56198;BME280;42700;42.524;12.052;2023-04-29T10:55:57;118771.34;;;23.20;100.00
56198;BME280;42700;42.524;12.052;2023-04-29T11:01:04;117603.78;;;22.90;100.00
56198;BME280;42700;42.524;12.052;2023-04-29T11:06:18;115821.16;;;22.42;100.00
56198;BME280;42700;42.524;12.052;2023-04-29T11:08:44;114949.09;;;22.17;100.00
56198;BME280;42700;42.524;12.052;2023-04-29T11:11:12;113934.59;;;21.88;100.00
56198;BME280;42700;42.524;12.052;2023-04-29T11:13:38;113192.91;;;21.66;100.00
56198;BME280;42700;42.524;12.052;2023-04-29T11:16:10;112976.84;;;21.54;100.00
56198;BME280;42700;42.524;12.052;2023-04-29T11:18:36;111005.97;;;20.99;100.00
56198;BME280;42700;42.524;12.052;2023-04-29T11:21:21;110654.91;;;20.80;100.00
56198;BME280;42700;42.524;12.052;2023-04-29T11:23:47;110215.47;;;20.57;100.00
56198;BME280;42700;42.524;12.052;2023-04-29T11:26:17;109415.56;;;20.24;100.00
56198;BME280;42700;42.524;12.052;2023-04-29T11:28:43;109040.09;;;19.98;100.00
56198;BME280;42700;42.524;12.052;2023-04-29T11:31:09;108965.81;;;19.81;100.00
56198;BME280;42700;42.524;12.052;2023-04-29T11:33:35;109248.47;;;19.76;100.00
56198;BME280;42700;42.524;12.052;2023-04-29T11:36:00;109807.72;;;19.76;100.00
56198;BME280;42700;42.524;12.052;2023-04-29T11:38:29;110540.50;;;19.85;100.00
56198;BME280;42700;42.524;12.052;2023-04-29T11:40:55;111274.22;;;19.90;100.00
56198;BME280;42700;42.524;12.052;2023-04-29T11:43:21;111993.88;;;19.96;100.00
56198;BME280;42700;42.524;12.052;2023-04-29T11:45:48;112677.78;;;20.03;100.00
56198;BME280;42700;42.524;12.052;2023-04-29T11:48:20;113203.94;;;20.08;100.00
56198;BME280;42700;42.524;12.052;2023-04-29T11:50:46;113869.06;;;20.21;100.00
56198;BME280;42700;42.524;12.052;2023-04-29T11:53:13;114724.72;;;20.40;100.00
56198;BME280;42700;42.524;12.052;2023-04-29T11:55:40;115383.88;;;20.57;100.00
56198;BME280;42700;42.524;12.052;2023-04-29T11:58:06;115680.97;;;20.63;100.00
56198;BME280;42700;42.524;12.052;2023-04-29T12:00:31;114946.00;;;20.41;100.00
56198;BME280;42700;42.524;12.052;2023-04-29T12:02:57;114160.44;;;20.21;100.00
56198;BME280;42700;42.524;12.052;2023-04-29T12:05:24;113906.69;;;20.09;100.00
56198;BME280;42700;42.524;12.052;2023-04-29T12:07:50;113634.41;;;20.01;100.00
56198;BME280;42700;42.524;12.052;2023-04-29T12:10:15;113163.91;;;19.84;100.00
56198;BME280;42700;42.524;12.052;2023-04-29T12:12:41;112746.50;;;19.73;100.00
56198;BME280;42700;42.524;12.052;2023-04-29T12:15:10;112982.44;;;19.81;100.00
56198;BME280;42700;42.524;12.052;2023-04-29T12:17:37;113042.19;;;19.84;100.00
56198;BME280;42700;42.524;12.052;2023-04-29T12:20:03;113144.31;;;19.86;100.00
56198;BME280;42700;42.524;12.052;2023-04-29T12:22:31;113141.75;;;19.88;100.00
56198;BME280;42700;42.524;12.052;2023-04-29T12:24:57;113241.28;;;19.92;100.00
56198;BME280;42700;42.524;12.052;2023-04-29T12:27:22;113473.00;;;20.02;100.00
56198;BME280;42700;42.524;12.052;2023-04-29T12:29:50;113686.66;;;20.10;100.00
56198;BME280;42700;42.524;12.052;2023-04-29T12:32:16;114653.19;;;20.38;100.00
56198;BME280;42700;42.524;12.052;2023-04-29T12:34:44;115623.06;;;20.70;100.00
56198;BME280;42700;42.524;12.052;2023-04-29T12:37:10;117186.81;;;21.18;100.00
56198;BME280;42700;42.524;12.052;2023-04-29T12:39:37;119842.84;;;22.07;100.00
56198;BME280;42700;42.524;12.052;2023-04-29T12:42:02;120816.84;;;22.52;100.00
56198;BME280;42700;42.524;12.052;2023-04-29T12:44:34;121143.59;;;22.76;100.00
56198;BME280;42700;42.524;12.052;2023-04-29T12:47:07;122646.97;;;23.31;100.00
56198;BME280;42700;42.524;12.052;2023-04-29T12:49:34;124511.22;;;24.02;100.00
56198;BME280;42700;42.524;12.052;2023-04-29T12:51:59;125610.75;;;24.52;100.00